Time;durP1;ratioP1;P1;durP2;ratioP2;P2;SDS_P1;SDS_P2;PMS_P1;PMS_P2;Temp;Humidity;BMP_temperature;BMP_pressure;BME280_temperature;BME280_humidity;BME280_pressure;Samples;Min_cycle;Max_cycle;Signal;HPM_P1;HPM_P2
2022/09/28 00:04:48;;;;;;;1.43;1.33;;;;;12.20;97241.00;;;;16556997;28;20608;-75
2022/09/28 00:12:54;;;;;;;1.50;1.40;;;;;12.20;97211.00;;;;16553651;28;20242;-75
2022/09/28 00:21:01;;;;;;;1.93;1.83;;;;;12.10;97192.00;;;;16559825;28;20250;-75
2022/09/28 00:29:06;;;;;;;1.93;1.70;;;;;12.10;97180.00;;;;16552717;28;20196;-75
2022/09/28 00:37:09;;;;;;;1.77;1.67;;;;;12.10;97160.00;;;;16556766;28;20260;-75
2022/09/28 00:45:13;;;;;;;1.70;1.57;;;;;12.00;97149.00;;;;16555299;28;20701;-76
2022/09/28 00:53:19;;;;;;;3.60;2.43;;;;;12.10;97128.00;;;;16551119;28;20693;-76
2022/09/28 01:01:23;;;;;;;2.07;1.90;;;;;12.20;97095.00;;;;16559240;28;20229;-75
2022/09/28 01:09:27;;;;;;;1.60;1.47;;;;;12.30;97092.00;;;;16563093;28;20207;-75
2022/09/28 01:17:48;;;;;;;1.70;1.60;;;;;12.30;97072.00;;;;16556595;28;20223;-75
2022/09/28 01:25:54;;;;;;;2.60;1.70;;;;;12.40;97053.00;;;;16560607;28;20224;-75
2022/09/28 01:34:03;;;;;;;2.60;2.00;;;;;12.50;97043.00;;;;16554659;28;20711;-75
2022/09/28 01:42:10;;;;;;;2.37;1.40;;;;;12.50;97031.00;;;;16556486;28;20306;-75
2022/09/28 01:50:16;;;;;;;1.57;1.47;;;;;12.60;97009.00;;;;16557179;28;20220;-75
2022/09/28 01:58:22;;;;;;;2.33;1.43;;;;;12.90;96990.00;;;;16549778;28;20743;-76
2022/09/28 02:06:30;;;;;;;3.13;1.20;;;;;13.10;96992.00;;;;16533093;28;20255;-75
2022/09/28 02:14:36;;;;;;;2.60;1.20;;;;;13.10;96973.00;;;;16543282;28;20694;-75
2022/09/28 02:22:43;;;;;;;3.63;1.70;;;;;13.10;96951.00;;;;16553392;28;20544;-76
2022/09/28 02:30:46;;;;;;;4.10;1.30;;;;;13.30;96946.00;;;;16546097;28;20585;-76
2022/09/28 02:38:52;;;;;;;3.90;1.73;;;;;13.30;96937.00;;;;16535756;28;20222;-76
2022/09/28 02:47:02;;;;;;;2.23;1.43;;;;;13.30;96913.00;;;;16536894;28;20221;-75
2022/09/28 02:55:20;;;;;;;3.40;1.37;;;;;13.50;96919.00;;;;16573951;28;20256;-75
2022/09/28 03:03:31;;;;;;;1.77;1.07;;;;;13.60;96911.00;;;;16563873;28;20227;-75
2022/09/28 03:11:38;;;;;;;2.30;1.47;;;;;13.50;96906.00;;;;16556998;28;20239;-75
2022/09/28 03:19:40;;;;;;;3.57;1.40;;;;;13.60;96892.00;;;;16552334;28;20230;-76
2022/09/28 03:27:44;;;;;;;2.87;1.50;;;;;13.70;96896.00;;;;16569930;28;20676;-76
2022/09/28 03:35:49;;;;;;;3.50;1.60;;;;;13.70;96893.00;;;;16564708;28;20573;-76
2022/09/28 03:43:55;;;;;;;5.73;1.57;;;;;13.50;96895.00;;;;16581623;28;20708;-76
2022/09/28 03:52:00;;;;;;;1.73;1.20;;;;;13.70;96886.00;;;;16565950;28;20219;-75
2022/09/28 04:00:05;;;;;;;1.80;1.17;;;;;13.50;96894.00;;;;16570665;28;20227;-76
2022/09/28 04:08:16;;;;;;;8.07;1.47;;;;;13.10;96903.00;;;;16568289;28;20226;-76
2022/09/28 04:16:20;;;;;;;4.13;2.00;;;;;12.90;96914.00;;;;16549379;28;20322;-75
2022/09/28 04:24:43;;;;;;;2.40;0.93;;;;;12.40;96933.00;;;;16557374;28;20342;-75
2022/09/28 04:32:48;;;;;;;1.10;1.10;;;;;12.40;96926.00;;;;16545639;28;20224;-75
2022/09/28 04:40:51;;;;;;;1.13;0.73;;;;;12.30;96932.00;;;;16547296;28;20233;-77
2022/09/28 04:48:54;;;;;;;3.13;1.20;;;;;12.30;96924.00;;;;16553053;28;20712;-76
2022/09/28 04:57:15;;;;;;;3.90;1.10;;;;;12.30;96941.00;;;;16555998;28;20228;-76
2022/09/28 05:05:19;;;;;;;2.00;1.03;;;;;12.20;96944.00;;;;16547975;28;20760;-75
2022/09/28 05:13:51;;;;;;;1.17;0.70;;;;;12.10;96943.00;;;;16531758;28;20240;-75
2022/09/28 05:21:59;;;;;;;1.63;0.97;;;;;12.00;96938.00;;;;16542917;28;20231;-76
2022/09/28 05:30:02;;;;;;;1.20;1.00;;;;;11.90;96957.00;;;;16542174;28;20234;-76
2022/09/28 05:38:35;;;;;;;4.20;1.40;;;;;12.10;96946.00;;;;16540983;28;20235;-79
2022/09/28 05:46:38;;;;;;;2.87;1.17;;;;;12.00;96945.00;;;;16551755;28;20337;-79
2022/09/28 05:54:42;;;;;;;1.47;1.00;;;;;12.00;96958.00;;;;16539265;28;20428;-76
2022/09/28 06:02:44;;;;;;;1.93;0.90;;;;;11.90;96964.00;;;;16533234;28;20620;-77
2022/09/28 06:10:50;;;;;;;4.17;1.40;;;;;12.00;96971.00;;;;16538854;28;20266;-76
2022/09/28 06:18:53;;;;;;;1.73;1.60;;;;;12.00;96967.00;;;;16525648;28;20236;-79
2022/09/28 06:27:16;;;;;;;4.17;2.30;;;;;12.20;96976.00;;;;16540937;28;20229;-79
2022/09/28 06:35:22;;;;;;;2.57;1.80;;;;;12.40;96978.00;;;;16539244;28;20592;-78
2022/09/28 06:43:28;;;;;;;3.90;1.90;;;;;12.40;96988.00;;;;16529428;28;20222;-78
2022/09/28 06:51:49;;;;;;;5.10;2.10;;;;;12.80;96996.00;;;;16540880;28;20218;-79
2022/09/28 06:59:58;;;;;;;3.83;2.17;;;;;13.70;96996.00;;;;16535180;28;20238;-79
2022/09/28 07:08:02;;;;;;;3.07;1.83;;;;;13.70;97010.00;;;;16541190;28;20213;-79
2022/09/28 07:16:18;;;;;;;3.40;1.70;;;;;13.60;97037.00;;;;16538392;28;20243;-78
2022/09/28 07:24:22;;;;;;;2.80;1.97;;;;;13.70;97047.00;;;;16532200;28;20237;-79
2022/09/28 07:32:45;;;;;;;5.40;1.90;;;;;13.30;97050.00;;;;16546995;28;20225;-80
2022/09/28 07:41:15;;;;;;;8.13;2.60;;;;;13.30;97064.00;;;;16547015;28;20227;-79
2022/09/28 07:49:23;;;;;;;9.03;2.60;;;;;13.50;97065.00;;;;16541872;28;20209;-78
2022/09/28 07:57:55;;;;;;;2.50;2.27;;;;;13.20;97073.00;;;;16537976;28;20261;-78
2022/09/28 08:06:11;;;;;;;3.23;2.60;;;;;13.50;97083.00;;;;16543098;28;20220;-78
2022/09/28 08:14:14;;;;;;;2.90;2.00;;;;;13.50;97081.00;;;;16545932;28;20237;-77
2022/09/28 08:22:52;;;;;;;2.70;2.50;;;;;13.10;97112.00;;;;16527874;28;20225;-78
2022/09/28 08:30:55;;;;;;;6.00;2.13;;;;;16.40;97103.00;;;;16554454;28;20219;-75
2022/09/28 08:39:08;;;;;;;77.27;24.70;;;;;16.10;97100.00;;;;16539964;28;20237;-75
2022/09/28 08:56:15;;;;;;;4.20;3.50;;;;;15.90;97104.00;;;;16560075;28;20256;-77
2022/09/28 09:04:18;;;;;;;4.83;2.60;;;;;14.50;97130.00;;;;16564197;28;20223;-77
2022/09/28 09:12:43;;;;;;;2.90;1.80;;;;;13.40;97147.00;;;;16549836;28;20231;-77
2022/09/28 09:20:50;;;;;;;2.90;2.60;;;;;13.90;97148.00;;;;16553140;28;20235;-77
2022/09/28 09:29:13;;;;;;;2.20;2.00;;;;;14.00;97160.00;;;;16551510;28;20202;-76
2022/09/28 09:37:35;;;;;;;3.70;1.87;;;;;13.80;97171.00;;;;16538901;28;20473;-78
2022/09/28 09:46:12;;;;;;;2.90;1.83;;;;;13.70;97182.00;;;;16539482;28;20239;-77
2022/09/28 09:54:34;;;;;;;4.93;2.70;;;;;13.70;97190.00;;;;16528504;28;20227;-76
2022/09/28 10:02:40;;;;;;;4.03;2.40;;;;;14.40;97185.00;;;;16528445;28;20226;-76
2022/09/28 10:11:01;;;;;;;3.97;2.00;;;;;14.50;97188.00;;;;16535587;28;20290;-76
2022/09/28 10:19:07;;;;;;;4.13;2.20;;;;;14.40;97176.00;;;;16543154;28;20219;-77
2022/09/28 10:27:36;;;;;;;4.37;2.30;;;;;14.40;97160.00;;;;16545892;28;20238;-77
2022/09/28 10:35:43;;;;;;;3.70;2.60;;;;;14.40;97173.00;;;;16545390;28;20321;-77
2022/09/28 10:44:04;;;;;;;6.47;2.43;;;;;14.70;97177.00;;;;16534598;28;20230;-78
2022/09/28 10:52:37;;;;;;;3.70;2.30;;;;;14.70;97175.00;;;;16534653;28;20590;-77
2022/09/28 11:00:41;;;;;;;3.00;2.30;;;;;14.80;97182.00;;;;16526362;28;20236;-78
2022/09/28 11:08:58;;;;;;;2.23;2.00;;;;;15.00;97178.00;;;;16541366;28;20216;-78
2022/09/28 11:17:17;;;;;;;5.50;3.50;;;;;15.10;97167.00;;;;16546903;28;20216;-77
2022/09/28 11:25:24;;;;;;;3.67;2.50;;;;;14.90;97175.00;;;;16551706;28;20265;-78
2022/09/28 11:33:31;;;;;;;4.60;2.60;;;;;15.00;97164.00;;;;16550219;28;20227;-76
2022/09/28 11:42:10;;;;;;;2.57;2.10;;;;;15.20;97159.00;;;;16549663;28;20394;-76
2022/09/28 11:50:24;;;;;;;1.77;1.50;;;;;15.60;97159.00;;;;16546003;28;20223;-78
2022/09/28 11:58:31;;;;;;;2.70;1.90;;;;;15.60;97156.00;;;;16536557;28;20224;-78
2022/09/28 12:06:41;;;;;;;1.80;1.57;;;;;15.80;97152.00;;;;16557144;28;20231;-77
2022/09/28 12:14:46;;;;;;;9.20;1.90;;;;;15.50;97151.00;;;;16539384;28;20728;-77
2022/09/28 12:23:01;;;;;;;1.70;1.43;;;;;15.90;97154.00;;;;16551492;28;20229;-76
2022/09/28 12:31:13;;;;;;;3.40;1.50;;;;;15.80;97145.00;;;;16534855;28;20342;-77
2022/09/28 12:39:27;;;;;;;2.00;1.17;;;;;16.40;97136.00;;;;16540986;28;20599;-76
2022/09/28 12:47:59;;;;;;;2.63;1.33;;;;;16.00;97146.00;;;;16542327;28;20354;-78
2022/09/28 12:56:03;;;;;;;1.20;1.10;;;;;15.60;97140.00;;;;16525779;28;20289;-76
2022/09/28 13:04:26;;;;;;;4.70;1.43;;;;;15.90;97137.00;;;;16542497;28;20750;-76
2022/09/28 13:12:37;;;;;;;2.40;1.30;;;;;16.10;97133.00;;;;16543311;28;20234;-76
2022/09/28 13:20:53;;;;;;;0.90;0.80;;;;;15.90;97133.00;;;;16547647;28;20223;-76
2022/09/28 13:29:01;;;;;;;1.27;0.97;;;;;16.20;97128.00;;;;16546736;28;20300;-76
2022/09/28 13:37:20;;;;;;;2.77;1.03;;;;;16.10;97131.00;;;;16542773;28;20712;-77
2022/09/28 13:45:38;;;;;;;3.67;1.20;;;;;16.20;97146.00;;;;16537394;28;20238;-75
2022/09/28 13:53:58;;;;;;;3.10;1.17;;;;;16.20;97146.00;;;;16541181;28;20250;-77
2022/09/28 14:02:04;;;;;;;2.40;1.27;;;;;16.40;97136.00;;;;16542450;28;20256;-77
2022/09/28 14:10:19;;;;;;;2.27;1.10;;;;;16.40;97161.00;;;;16530425;28;20354;-76
2022/09/28 14:18:27;;;;;;;2.73;1.23;;;;;16.00;97158.00;;;;16536468;28;20267;-77
2022/09/28 14:27:03;;;;;;;2.90;1.37;;;;;16.40;97167.00;;;;16533989;28;20227;-77
2022/09/28 14:35:07;;;;;;;1.67;1.03;;;;;16.40;97166.00;;;;16537464;28;20680;-77
2022/09/28 14:43:36;;;;;;;3.47;1.27;;;;;16.80;97170.00;;;;16541219;28;20704;-75
2022/09/28 14:52:04;;;;;;;2.00;1.23;;;;;16.90;97180.00;;;;16555286;28;20356;-76
2022/09/28 15:00:16;;;;;;;6.87;1.23;;;;;17.10;97167.00;;;;16542885;28;20319;-76
2022/09/28 15:08:21;;;;;;;1.73;1.10;;;;;16.60;97178.00;;;;16546404;28;20200;-77
2022/09/28 15:16:25;;;;;;;2.60;1.13;;;;;17.00;97174.00;;;;16553321;28;20744;-77
2022/09/28 15:24:31;;;;;;;2.40;1.13;;;;;17.70;97164.00;;;;16563438;28;20369;-78
2022/09/28 15:32:36;;;;;;;2.10;1.03;;;;;17.00;97168.00;;;;16553736;28;20246;-78
2022/09/28 15:40:40;;;;;;;2.30;1.30;;;;;17.40;97174.00;;;;16549999;28;20646;-77
2022/09/28 15:48:50;;;;;;;1.87;1.30;;;;;17.10;97175.00;;;;16550350;28;20214;-77
2022/09/28 15:56:58;;;;;;;2.37;1.20;;;;;18.10;97192.00;;;;16551261;28;20227;-78
2022/09/28 16:05:04;;;;;;;4.93;2.60;;;;;17.60;97192.00;;;;16545816;28;20228;-77
2022/09/28 16:13:14;;;;;;;5.70;4.87;;;;;17.20;97194.00;;;;16558008;28;20470;-77
2022/09/28 16:21:42;;;;;;;9.23;6.67;;;;;17.00;97197.00;;;;16563924;28;20379;-78
2022/09/28 16:29:45;;;;;;;3.47;2.30;;;;;16.40;97201.00;;;;16547952;28;20223;-78
2022/09/28 16:37:54;;;;;;;10.90;6.17;;;;;17.00;97206.00;;;;16556517;28;20203;-78
2022/09/28 16:45:58;;;;;;;4.83;2.53;;;;;15.50;97211.00;;;;16548894;28;20240;-78
2022/09/28 17:02:35;;;;;;;2.80;2.50;;;;;13.60;97260.00;;;;16541602;28;20281;-78
2022/09/28 17:10:43;;;;;;;3.97;2.60;;;;;13.60;97253.00;;;;16530052;28;20237;-78
2022/09/28 17:18:46;;;;;;;9.47;6.50;;;;;13.00;97265.00;;;;16531140;28;20213;-78
2022/09/28 17:26:51;;;;;;;10.07;3.70;;;;;12.60;97287.00;;;;16531782;28;20242;-77
2022/09/28 17:34:54;;;;;;;5.43;3.10;;;;;12.40;97278.00;;;;16542252;28;20657;-76
2022/09/28 17:42:59;;;;;;;6.63;3.47;;;;;12.10;97298.00;;;;16541967;28;20580;-77
2022/09/28 17:51:02;;;;;;;5.30;2.90;;;;;11.90;97311.00;;;;16537793;28;20226;-79
2022/09/28 17:59:07;;;;;;;5.43;3.20;;;;;11.70;97308.00;;;;16537845;28;20214;-77
2022/09/28 18:07:10;;;;;;;7.07;4.23;;;;;11.60;97319.00;;;;16532320;28;20742;-77
2022/09/28 18:15:14;;;;;;;5.57;4.37;;;;;11.50;97323.00;;;;16526728;28;20233;-77
2022/09/28 18:23:17;;;;;;;5.00;4.60;;;;;11.30;97331.00;;;;16536099;28;20700;-78
2022/09/28 18:31:20;;;;;;;6.40;5.40;;;;;11.30;97351.00;;;;16532078;28;20602;-77
2022/09/28 18:39:25;;;;;;;6.70;4.00;;;;;11.00;97359.00;;;;16534862;28;20211;-78
2022/09/28 18:47:29;;;;;;;11.00;5.30;;;;;11.00;97366.00;;;;16542940;28;20224;-77
2022/09/28 18:55:31;;;;;;;14.37;7.77;;;;;11.10;97376.00;;;;16547084;28;20215;-78
2022/09/28 19:03:35;;;;;;;7.00;6.37;;;;;11.60;97376.00;;;;16536412;28;20313;-78
2022/09/28 19:11:38;;;;;;;7.00;6.00;;;;;12.10;97376.00;;;;16531294;28;21190;-77
2022/09/28 19:19:42;;;;;;;5.50;5.00;;;;;11.50;97377.00;;;;16544537;28;20221;-78
2022/09/28 19:27:46;;;;;;;5.60;4.57;;;;;11.70;97385.00;;;;16551583;28;20206;-77
2022/09/28 19:35:57;;;;;;;5.00;4.40;;;;;11.70;97382.00;;;;16556509;28;20313;-78
2022/09/28 19:44:02;;;;;;;6.90;6.20;;;;;11.90;97389.00;;;;16549530;28;20289;-78
2022/09/28 19:52:08;;;;;;;5.67;5.07;;;;;11.60;97397.00;;;;16540032;28;20545;-76
2022/09/28 20:00:11;;;;;;;7.97;6.47;;;;;11.80;97400.00;;;;16547091;28;20635;-77
2022/09/28 20:08:15;;;;;;;11.17;8.03;;;;;12.40;97395.00;;;;16538839;28;20203;-78
2022/09/28 20:16:23;;;;;;;10.37;7.40;;;;;12.00;97414.00;;;;16543922;28;20664;-77
2022/09/28 20:24:27;;;;;;;8.10;6.70;;;;;11.90;97415.00;;;;16556101;28;20236;-77
2022/09/28 20:32:31;;;;;;;15.60;14.17;;;;;12.90;97411.00;;;;16557951;28;20311;-79
2022/09/28 20:40:35;;;;;;;13.30;12.07;;;;;12.80;97411.00;;;;16577061;28;20250;-78
2022/09/28 20:48:38;;;;;;;11.50;10.30;;;;;13.10;97413.00;;;;16550634;28;20224;-77
2022/09/28 20:56:42;;;;;;;7.73;6.80;;;;;13.10;97423.00;;;;16539784;28;20307;-77
2022/09/28 21:04:44;;;;;;;10.47;9.10;;;;;13.10;97426.00;;;;16545669;28;20592;-78
2022/09/28 21:12:51;;;;;;;6.30;5.63;;;;;13.10;97419.00;;;;16543062;28;20314;-77
2022/09/28 21:20:54;;;;;;;6.13;5.53;;;;;12.70;97418.00;;;;16538711;28;20228;-77
2022/09/28 21:28:59;;;;;;;6.37;5.70;;;;;11.50;97414.00;;;;16536824;28;20247;-76
2022/09/28 21:37:02;;;;;;;6.27;5.67;;;;;11.60;97414.00;;;;16541068;28;20220;-77
2022/09/28 21:45:07;;;;;;;6.47;5.40;;;;;12.20;97407.00;;;;16556127;28;20634;-78
2022/09/28 21:53:09;;;;;;;11.27;6.63;;;;;12.00;97409.00;;;;16545735;28;20230;-77
2022/09/28 22:01:15;;;;;;;6.90;6.20;;;;;11.80;97415.00;;;;16542322;28;20706;-77
2022/09/28 22:09:18;;;;;;;7.33;5.70;;;;;12.10;97407.00;;;;16533159;28;20212;-77
2022/09/28 22:17:21;;;;;;;8.87;5.70;;;;;12.10;97404.00;;;;16531187;28;20216;-78
2022/09/28 22:25:24;;;;;;;6.63;4.93;;;;;12.00;97424.00;;;;16539374;28;20243;-78
2022/09/28 22:33:28;;;;;;;5.63;5.10;;;;;12.10;97410.00;;;;16542023;28;20346;-78
2022/09/28 22:41:30;;;;;;;6.33;5.73;;;;;11.90;97408.00;;;;16542453;28;20286;-79
2022/09/28 22:49:34;;;;;;;6.00;5.50;;;;;11.80;97411.00;;;;16542663;28;20203;-77
2022/09/28 22:57:37;;;;;;;8.00;6.00;;;;;11.80;97413.00;;;;16549203;28;20260;-76
2022/09/28 23:05:41;;;;;;;8.63;6.50;;;;;11.80;97420.00;;;;16546006;28;20680;-77
2022/09/28 23:13:47;;;;;;;6.50;5.33;;;;;12.00;97417.00;;;;16548549;28;20230;-76
2022/09/28 23:21:52;;;;;;;4.83;4.33;;;;;11.00;97424.00;;;;16556764;28;20325;-76
2022/09/28 23:29:55;;;;;;;4.30;3.80;;;;;10.60;97424.00;;;;16549382;28;20211;-77
2022/09/28 23:37:59;;;;;;;6.13;4.70;;;;;11.00;97424.00;;;;16560522;28;20207;-77
2022/09/28 23:46:02;;;;;;;9.23;6.77;;;;;11.60;97415.00;;;;16560104;28;20302;-78
2022/09/28 23:54:06;;;;;;;8.57;6.80;;;;;11.50;97417.00;;;;16571028;28;20639;-77
